createdAt,value
2023-01-21T00:03:32.428Z,100793.19
2023-01-21T00:08:29.024Z,100796.13
2023-01-21T00:13:25.806Z,100794.72
2023-01-21T00:18:23.049Z,100797.66
2023-01-21T00:23:19.686Z,100804.63
2023-01-21T00:28:16.268Z,100807.38
2023-01-21T00:33:13.074Z,100824.78
2023-01-21T00:38:10.357Z,100826.56
2023-01-21T00:43:07.097Z,100818.69
2023-01-21T00:48:03.941Z,100818.72
2023-01-21T00:53:00.447Z,100831.34
2023-01-21T00:57:57.777Z,100811.47
2023-01-21T01:02:54.777Z,100815.63
2023-01-21T01:07:51.416Z,100825.44
2023-01-21T01:12:47.931Z,100830.69
2023-01-21T01:17:45.255Z,100823.13
2023-01-21T01:22:41.891Z,100818.00
2023-01-21T01:27:38.431Z,100842.22
2023-01-21T01:32:35.118Z,100851.09
2023-01-21T01:37:32.436Z,100835.75
2023-01-21T01:42:29.139Z,100849.63
2023-01-21T01:47:29.714Z,100858.13
2023-01-21T01:52:27.265Z,100853.81
2023-01-21T01:57:27.465Z,100866.88
2023-01-21T02:02:24.050Z,100868.56
2023-01-21T02:07:22.553Z,100863.19
2023-01-21T02:12:19.222Z,100858.13
2023-01-21T02:17:25.110Z,100834.63
2023-01-21T02:22:26.191Z,100829.00
2023-01-21T02:27:40.746Z,100834.81
2023-01-21T02:33:08.954Z,100818.59
2023-01-21T02:38:12.271Z,100843.84
2023-01-21T02:43:12.187Z,100850.03
2023-01-21T02:48:11.846Z,100825.97
2023-01-21T02:53:23.034Z,100831.06
2023-01-21T02:58:22.423Z,100832.63
2023-01-21T03:03:27.902Z,100833.41
2023-01-21T03:08:29.869Z,100835.88
2023-01-21T03:13:48.862Z,100816.19
2023-01-21T03:18:50.876Z,100837.31
2023-01-21T03:23:50.854Z,100847.78
2023-01-21T03:28:50.835Z,100836.31
2023-01-21T03:33:56.453Z,100817.13
2023-01-21T03:38:55.875Z,100828.34
2023-01-21T03:43:52.563Z,100818.63
2023-01-21T03:48:52.064Z,100817.69
2023-01-21T03:53:51.727Z,100824.56
2023-01-21T03:58:48.904Z,100834.72
2023-01-21T04:03:45.461Z,100829.63
2023-01-21T04:08:42.091Z,100828.91
2023-01-21T04:13:38.951Z,100833.22
2023-01-21T04:18:36.298Z,100837.56
2023-01-21T04:23:32.905Z,100843.53
2023-01-21T04:28:29.577Z,100854.78
2023-01-21T04:33:26.293Z,100865.03
2023-01-21T04:38:23.695Z,100856.47
2023-01-21T04:43:20.412Z,100849.63
2023-01-21T04:48:17.029Z,100858.22
2023-01-21T04:53:13.835Z,100876.22
2023-01-21T04:58:11.148Z,100887.56
2023-01-21T05:03:07.808Z,100875.16
2023-01-21T05:08:04.781Z,100888.13
2023-01-21T05:13:01.377Z,100872.44
2023-01-21T05:17:59.892Z,100884.97
2023-01-21T05:22:57.259Z,100902.91
2023-01-21T05:27:54.564Z,100905.25
2023-01-21T05:32:51.845Z,100911.00
2023-01-21T05:37:49.279Z,100906.75
2023-01-21T05:42:46.252Z,100898.97
2023-01-21T05:47:42.941Z,100895.00
2023-01-21T05:52:40.179Z,100894.31
2023-01-21T05:57:37.683Z,100885.84
2023-01-21T06:02:34.872Z,100887.81
2023-01-21T06:07:31.779Z,100887.44
2023-01-21T06:12:28.532Z,100891.78
2023-01-21T06:17:26.132Z,100910.75
2023-01-21T06:22:22.804Z,100912.09
2023-01-21T06:27:19.560Z,100919.63
2023-01-21T06:32:16.264Z,100914.13
2023-01-21T06:37:15.876Z,100916.44
2023-01-21T06:42:12.680Z,100929.66
2023-01-21T06:47:09.348Z,100925.44
2023-01-21T06:52:06.583Z,100937.31
2023-01-21T06:57:03.845Z,100932.81
2023-01-21T07:02:00.911Z,100915.41
2023-01-21T07:06:57.585Z,100928.00
2023-01-21T07:11:54.909Z,100929.03
2023-01-21T07:16:53.042Z,100922.66
2023-01-21T07:21:49.784Z,100918.97
2023-01-21T07:26:46.851Z,100923.91
2023-01-21T07:31:43.746Z,100938.03
2023-01-21T07:36:41.280Z,100940.53
2023-01-21T07:41:37.746Z,100936.69
2023-01-21T07:46:39.622Z,100925.25
2023-01-21T07:51:37.633Z,100938.34
2023-01-21T07:56:35.153Z,100940.66
2023-01-21T08:01:32.218Z,100936.44
2023-01-21T08:06:28.906Z,100935.19
2023-01-21T08:11:25.566Z,100935.03
2023-01-21T08:16:22.883Z,100933.69
2023-01-21T08:21:20.357Z,100936.97
2023-01-21T08:26:17.016Z,100935.81
2023-01-21T08:31:14.260Z,100934.38
2023-01-21T08:36:11.690Z,100933.16
2023-01-21T08:41:08.348Z,100926.88
2023-01-21T08:46:05.386Z,100924.31
2023-01-21T08:51:07.829Z,100905.81
2023-01-21T08:56:11.378Z,100913.00
2023-01-21T09:01:08.936Z,100915.84
2023-01-21T09:06:05.958Z,100913.72
2023-01-21T09:11:03.636Z,100909.09
2023-01-21T09:16:00.993Z,100908.31
2023-01-21T09:21:00.642Z,100898.81
2023-01-21T09:26:01.450Z,100886.09
2023-01-21T09:30:58.569Z,100891.44
2023-01-21T09:35:56.348Z,100886.47
2023-01-21T09:40:53.583Z,100882.41
2023-01-21T09:45:51.446Z,100877.91
2023-01-21T09:50:50.216Z,100869.66
2023-01-21T09:55:49.281Z,100841.72
2023-01-21T10:00:49.533Z,100831.56
2023-01-21T10:06:01.915Z,100846.97
2023-01-21T10:11:07.515Z,100846.69
2023-01-21T10:16:08.446Z,100828.97
2023-01-21T10:21:08.173Z,100837.81
2023-01-21T10:26:07.618Z,100826.63
2023-01-21T10:31:07.611Z,100810.00
2023-01-21T10:36:15.531Z,100816.41
2023-01-21T10:41:21.962Z,100787.25
2023-01-21T10:46:23.859Z,100816.28
2023-01-21T10:51:24.859Z,100801.72
2023-01-21T10:56:30.896Z,100794.06
2023-01-21T11:01:29.696Z,100804.34
2023-01-21T11:06:29.728Z,100806.22
2023-01-21T11:11:28.202Z,100800.19
2023-01-21T11:16:35.408Z,100792.59
2023-01-21T11:21:32.213Z,100783.72
2023-01-21T11:26:30.605Z,100799.53
2023-01-21T11:31:28.885Z,100786.38
2023-01-21T11:36:25.674Z,100784.44
2023-01-21T11:41:22.593Z,100781.41
2023-01-21T11:46:26.193Z,100796.53
2023-01-21T11:51:23.176Z,100801.03
2023-01-21T11:56:20.276Z,100800.41
2023-01-21T12:01:20.323Z,100794.28
2023-01-21T12:06:19.717Z,100794.06
2023-01-21T12:11:19.137Z,100772.75
2023-01-21T12:16:27.056Z,100779.69
2023-01-21T12:21:29.269Z,100774.78
2023-01-21T12:26:36.059Z,100779.59
2023-01-21T12:31:36.123Z,100778.41
2023-01-21T12:36:38.043Z,100765.50
2023-01-21T12:41:35.049Z,100752.38
2023-01-21T12:46:35.120Z,100782.25
2023-01-21T12:51:34.264Z,100780.03
2023-01-21T12:56:36.199Z,100793.38
2023-01-21T13:01:41.251Z,100801.03
2023-01-21T13:06:53.692Z,100808.44
2023-01-21T13:11:53.560Z,100812.56
2023-01-21T13:16:52.661Z,100808.78
2023-01-21T13:21:53.618Z,100815.63
2023-01-21T13:27:04.066Z,100818.09
2023-01-21T13:32:14.137Z,100826.16
2023-01-21T13:37:18.041Z,100828.28
2023-01-21T13:42:27.456Z,100826.97
2023-01-21T13:47:36.050Z,100823.34
2023-01-21T13:52:39.699Z,100834.69
2023-01-21T13:57:51.164Z,100838.06
2023-01-21T14:02:51.229Z,100840.38
2023-01-21T14:07:50.449Z,100841.81
2023-01-21T14:13:03.483Z,100835.91
2023-01-21T14:18:09.021Z,100836.63
2023-01-21T14:23:23.109Z,100837.41
2023-01-21T14:28:22.359Z,100843.53
2023-01-21T14:33:21.755Z,100843.47
2023-01-21T14:38:24.168Z,100850.38
2023-01-21T14:43:36.040Z,100849.28
2023-01-21T14:48:33.948Z,100851.75
2023-01-21T14:53:30.731Z,100852.97
2023-01-21T14:58:27.708Z,100834.06
2023-01-21T15:03:26.935Z,100853.75
2023-01-21T15:08:26.250Z,100863.34
2023-01-21T15:13:28.928Z,100858.28
2023-01-21T15:18:35.386Z,100868.69
2023-01-21T15:23:37.174Z,100860.06
2023-01-21T15:28:39.719Z,100841.97
2023-01-21T15:33:49.930Z,100859.22
2023-01-21T15:38:48.064Z,100865.59
2023-01-21T15:43:51.441Z,100881.28
2023-01-21T15:48:56.783Z,100873.63
2023-01-21T15:54:03.734Z,100877.31
2023-01-21T15:59:06.987Z,100874.22
2023-01-21T16:04:12.455Z,100887.56
2023-01-21T16:09:11.958Z,100892.66
2023-01-21T16:14:15.432Z,100890.75
2023-01-21T16:19:13.681Z,100888.97
2023-01-21T16:24:13.197Z,100897.66
2023-01-21T16:29:12.975Z,100907.78
2023-01-21T16:34:09.683Z,100912.22
2023-01-21T16:39:06.666Z,100909.38
2023-01-21T16:44:04.949Z,100920.34
2023-01-21T16:49:04.103Z,100923.03
2023-01-21T16:54:19.591Z,100916.34
2023-01-21T16:59:20.198Z,100929.34
2023-01-21T17:04:16.867Z,100937.47
2023-01-21T17:09:22.073Z,100957.84
2023-01-21T17:14:21.820Z,100960.66
2023-01-21T17:19:22.686Z,100970.81
2023-01-21T17:24:21.059Z,100954.69
2023-01-21T17:29:18.986Z,100981.03
2023-01-21T17:34:20.950Z,100990.78
2023-01-21T17:39:32.643Z,100992.53
2023-01-21T17:44:29.388Z,100987.28
2023-01-21T17:49:26.881Z,100990.69
2023-01-21T17:54:25.489Z,100996.88
2023-01-21T17:59:37.687Z,100991.94
2023-01-21T18:04:35.317Z,101001.56
2023-01-21T18:09:34.686Z,101011.91
2023-01-21T18:14:32.558Z,101005.97
2023-01-21T18:19:33.730Z,101010.56
2023-01-21T18:24:32.730Z,101011.59
2023-01-21T18:29:30.532Z,101003.63
2023-01-21T18:34:28.515Z,101009.97
2023-01-21T18:39:25.503Z,101019.53
2023-01-21T18:44:23.135Z,101025.03
2023-01-21T18:49:20.139Z,101036.19
2023-01-21T18:54:17.628Z,101040.47
2023-01-21T18:59:15.500Z,101035.19
2023-01-21T19:04:14.491Z,101043.91
2023-01-21T19:09:19.064Z,101043.91
2023-01-21T19:14:15.756Z,101037.56
2023-01-21T19:19:13.836Z,101051.91
2023-01-21T19:24:12.257Z,101040.63
2023-01-21T19:29:13.299Z,101038.75
2023-01-21T19:34:10.275Z,101047.63
2023-01-21T19:39:13.487Z,101047.28
2023-01-21T19:44:10.148Z,101044.47
2023-01-21T19:49:13.270Z,101048.81
2023-01-21T19:54:12.779Z,101057.13
2023-01-21T19:59:12.694Z,101061.28
2023-01-21T20:04:10.470Z,101043.56
2023-01-21T20:09:11.344Z,101064.44
2023-01-21T20:14:08.706Z,101060.84
2023-01-21T20:19:06.155Z,101070.06
2023-01-21T20:24:02.889Z,101075.31
2023-01-21T20:29:01.973Z,101073.09
2023-01-21T20:33:59.463Z,101078.13
2023-01-21T20:38:56.307Z,101073.13
2023-01-21T20:43:53.077Z,101067.66
2023-01-21T20:48:51.211Z,101064.63
2023-01-21T20:53:48.741Z,101068.22
2023-01-21T20:58:47.312Z,101113.75
2023-01-21T21:03:44.560Z,101099.09
2023-01-21T21:08:41.776Z,101092.19
2023-01-21T21:13:38.988Z,101071.94
2023-01-21T21:18:35.659Z,101062.81
2023-01-21T21:23:33.976Z,101037.59
2023-01-21T21:28:34.867Z,100982.00
2023-01-21T21:33:41.686Z,100939.94
2023-01-21T21:38:38.484Z,101054.75
2023-01-21T21:43:38.625Z,101046.72
2023-01-21T21:48:37.964Z,101045.97
2023-01-21T21:53:35.373Z,101050.06
2023-01-21T21:58:32.206Z,101058.34
2023-01-21T22:03:28.733Z,101047.94
2023-01-21T22:08:28.743Z,101035.13
2023-01-21T22:13:25.965Z,101039.13
2023-01-21T22:18:23.021Z,101043.78
2023-01-21T22:23:19.632Z,101000.88
2023-01-21T22:28:16.346Z,101051.78
2023-01-21T22:33:14.057Z,101091.81
2023-01-21T22:38:10.616Z,101082.00
2023-01-21T22:43:07.203Z,101099.22
2023-01-21T22:48:05.849Z,101101.69
2023-01-21T22:53:04.194Z,101093.00
2023-01-21T22:58:00.893Z,101102.75
2023-01-21T23:02:58.364Z,101083.31
2023-01-21T23:07:55.117Z,101084.53
2023-01-21T23:12:52.447Z,101122.41
2023-01-21T23:17:49.087Z,101115.72
2023-01-21T23:22:45.849Z,101131.44
2023-01-21T23:27:42.392Z,101155.69
2023-01-21T23:32:39.649Z,101092.38
2023-01-21T23:37:37.194Z,101147.84
2023-01-21T23:42:34.230Z,101165.16
2023-01-21T23:47:31.041Z,101166.06
2023-01-21T23:52:28.349Z,101157.47
2023-01-21T23:57:25.213Z,101147.59
